createdAt,value
2022-12-01T00:01:53.885Z,102235.38
2022-12-01T00:04:25.435Z,102231.69
2022-12-01T00:06:57.224Z,102230.84
2022-12-01T00:09:47.693Z,102231.22
2022-12-01T00:12:19.786Z,102235.03
2022-12-01T00:14:54.975Z,102230.53
2022-12-01T00:17:26.526Z,102228.59
2022-12-01T00:19:58.033Z,102234.78
2022-12-01T00:22:30.047Z,102227.16
2022-12-01T00:25:01.573Z,102232.03
2022-12-01T00:27:33.406Z,102239.19
2022-12-01T00:30:04.899Z,102233.59
2022-12-01T00:32:36.720Z,102226.31
2022-12-01T00:35:08.310Z,102226.19
2022-12-01T00:37:40.269Z,102234.91
2022-12-01T00:40:11.814Z,102223.56
2022-12-01T00:42:43.770Z,102228.22
2022-12-01T00:45:15.285Z,102232.41
2022-12-01T00:47:47.090Z,102227.63
2022-12-01T00:50:18.724Z,102225.25
2022-12-01T00:52:50.587Z,102233.59
2022-12-01T00:55:22.139Z,102228.34
2022-12-01T00:57:54.023Z,102233.34
2022-12-01T01:00:25.584Z,102240.75
2022-12-01T01:02:57.507Z,102233.84
2022-12-01T01:05:29.115Z,102235.16
2022-12-01T01:08:00.705Z,102237.06
2022-12-01T01:10:32.291Z,102236.94
2022-12-01T01:13:04.151Z,102240.75
2022-12-01T01:15:35.700Z,102238.72
2022-12-01T01:18:07.632Z,102243.03
2022-12-01T01:20:39.187Z,102240.16
2022-12-01T01:23:11.176Z,102243.38
2022-12-01T01:25:42.721Z,102247.19
2022-12-01T01:28:14.612Z,102246.72
2022-12-01T01:30:46.163Z,102249.09
2022-12-01T01:33:18.169Z,102241.00
2022-12-01T01:35:49.661Z,102249.47
2022-12-01T01:38:21.527Z,102244.69
2022-12-01T01:40:53.028Z,102232.41
2022-12-01T01:43:24.994Z,102236.81
2022-12-01T01:45:56.543Z,102240.41
2022-12-01T01:48:28.355Z,102238.84
2022-12-01T01:50:59.897Z,102246.25
2022-12-01T01:53:31.405Z,102240.75
2022-12-01T01:56:03.169Z,102240.03
2022-12-01T01:58:35.003Z,102244.22
2022-12-01T02:01:06.554Z,102238.25
2022-12-01T02:03:38.497Z,102232.41
2022-12-01T02:06:10.024Z,102237.28
2022-12-01T02:08:42.077Z,102233.00
2022-12-01T02:11:13.592Z,102231.69
2022-12-01T02:13:45.545Z,102233.59
2022-12-01T02:16:17.515Z,102222.75
2022-12-01T02:18:49.085Z,102223.81
2022-12-01T02:21:21.006Z,102223.94
2022-12-01T02:23:52.513Z,102215.34
2022-12-01T02:26:24.380Z,102222.38
2022-12-01T02:28:55.935Z,102219.28
2022-12-01T02:31:27.818Z,102223.09
2022-12-01T02:33:59.302Z,102232.63
2022-12-01T02:36:31.218Z,102231.91
2022-12-01T02:39:02.717Z,102222.63
2022-12-01T02:41:34.555Z,102223.94
2022-12-01T02:44:06.053Z,102229.53
2022-12-01T02:46:38.176Z,102224.53
2022-12-01T02:49:09.701Z,102227.16
2022-12-01T02:51:41.544Z,102217.38
2022-12-01T02:54:13.054Z,102227.69
2022-12-01T02:56:44.906Z,102217.81
2022-12-01T02:59:16.452Z,102221.75
2022-12-01T03:01:50.858Z,102131.53
2022-12-01T03:04:22.442Z,102215.47
2022-12-01T03:06:54.695Z,102211.88
2022-12-01T03:09:27.388Z,102219.16
2022-12-01T03:12:00.138Z,102217.50
2022-12-01T03:14:31.647Z,102219.16
2022-12-01T03:17:03.574Z,102225.00
2022-12-01T03:19:35.080Z,102213.56
2022-12-01T03:22:06.972Z,102226.91
2022-12-01T03:24:38.532Z,102221.66
2022-12-01T03:27:10.380Z,102224.53
2022-12-01T03:29:43.139Z,102225.25
2022-12-01T03:32:15.004Z,102223.47
2022-12-01T03:34:46.588Z,102230.38
2022-12-01T03:37:18.262Z,102220.09
2022-12-01T03:39:50.061Z,102217.47
2022-12-01T03:42:22.574Z,102223.81
2022-12-01T03:44:54.092Z,102227.59
2022-12-01T03:47:25.915Z,102225.78
2022-12-01T03:49:58.157Z,102234.63
2022-12-01T03:52:30.078Z,102233.78
2022-12-01T03:55:01.592Z,102240.56
2022-12-01T03:57:33.499Z,102231.97
2022-12-01T04:00:05.007Z,102231.13
2022-12-01T04:02:38.374Z,102238.19
2022-12-01T04:05:09.928Z,102232.81
2022-12-01T04:07:42.011Z,102226.16
2022-12-01T04:10:13.619Z,102235.34
2022-12-01T04:12:45.148Z,102232.13
2022-12-01T04:15:16.744Z,102234.19
2022-12-01T04:17:48.612Z,102238.59
2022-12-01T04:20:20.116Z,102244.56
2022-12-01T04:25:37.456Z,102229.53
2022-12-01T04:28:09.031Z,102231.94
2022-12-01T04:30:40.545Z,102226.31
2022-12-01T04:33:12.340Z,102245.94
2022-12-01T04:35:43.843Z,102231.63
2022-12-01T04:38:15.817Z,102246.91
2022-12-01T04:40:47.323Z,102247.94
2022-12-01T04:43:19.165Z,102245.22
2022-12-01T04:45:50.680Z,102246.88
2022-12-01T04:48:22.539Z,102242.84
2022-12-01T04:50:54.068Z,102248.56
2022-12-01T04:53:25.595Z,102246.66
2022-12-01T04:55:57.114Z,102259.66
2022-12-01T04:58:29.022Z,102262.16
2022-12-01T05:01:00.568Z,102264.91
2022-12-01T05:03:32.437Z,102263.69
2022-12-01T05:06:03.970Z,102259.28
2022-12-01T05:08:35.929Z,102265.00
2022-12-01T05:11:11.893Z,102259.03
2022-12-01T05:13:43.461Z,102260.56
2022-12-01T05:16:15.074Z,102265.47
2022-12-01T05:18:47.024Z,102269.53
2022-12-01T05:21:18.621Z,102268.72
2022-12-01T05:23:50.137Z,102263.38
2022-12-01T05:26:21.664Z,102254.66
2022-12-01T05:28:53.206Z,102270.75
2022-12-01T05:31:24.761Z,102270.75
2022-12-01T05:33:56.623Z,102276.69
2022-12-01T05:36:28.128Z,102277.16
2022-12-01T05:38:59.981Z,102274.19
2022-12-01T05:41:31.519Z,102277.53
2022-12-01T05:44:03.397Z,102281.31
2022-12-01T05:46:34.959Z,102284.66
2022-12-01T05:49:06.738Z,102280.13
2022-12-01T05:51:38.270Z,102263.78
2022-12-01T05:54:10.116Z,102270.81
2022-12-01T05:56:41.604Z,102281.06
2022-12-01T05:59:13.391Z,102277.34
2022-12-01T06:01:44.908Z,102276.69
2022-12-01T06:04:16.827Z,102267.13
2022-12-01T06:06:48.358Z,102277.03
2022-12-01T06:09:20.186Z,102277.63
2022-12-01T06:11:52.734Z,102278.34
2022-12-01T06:14:24.530Z,102275.63
2022-12-01T06:16:56.144Z,102285.03
2022-12-01T06:19:28.014Z,102280.63
2022-12-01T06:21:59.505Z,102287.44
2022-12-01T06:24:31.038Z,102282.91
2022-12-01T06:27:02.919Z,102289.59
2022-12-01T06:29:37.772Z,102288.38
2022-12-01T06:32:13.800Z,102289.59
2022-12-01T06:34:45.327Z,102285.75
2022-12-01T06:37:17.209Z,102284.22
2022-12-01T06:39:48.956Z,102287.44
2022-12-01T06:42:21.185Z,102311.72
2022-12-01T06:44:52.732Z,102292.44
2022-12-01T06:47:24.567Z,102289.06
2022-12-01T06:49:56.060Z,102297.19
2022-12-01T06:52:28.002Z,102297.53
2022-12-01T06:55:00.218Z,102297.41
2022-12-01T06:57:32.283Z,102301.69
2022-12-01T07:00:04.279Z,102307.44
2022-12-01T07:02:36.653Z,102297.19
2022-12-01T07:05:08.270Z,102306.50
2022-12-01T07:07:40.141Z,102313.63
2022-12-01T07:10:11.731Z,102312.72
2022-12-01T07:12:43.295Z,102311.41
2022-12-01T07:15:14.785Z,102310.03
2022-12-01T07:17:46.648Z,102318.03
2022-12-01T07:20:18.140Z,102316.72
2022-12-01T07:22:50.062Z,102313.03
2022-12-01T07:25:21.592Z,102320.44
2022-12-01T07:27:53.463Z,102324.88
2022-12-01T07:30:28.430Z,102322.25
2022-12-01T07:33:00.247Z,102316.16
2022-12-01T07:35:31.766Z,102322.81
2022-12-01T07:38:03.588Z,102321.25
2022-12-01T07:40:35.089Z,102326.63
2022-12-01T07:43:06.889Z,102328.06
2022-12-01T07:45:38.448Z,102321.63
2022-12-01T07:48:10.332Z,102322.69
2022-12-01T07:50:41.823Z,102329.25
2022-12-01T07:53:13.693Z,102332.59
2022-12-01T07:55:45.249Z,102336.91
2022-12-01T07:58:17.152Z,102331.78
2022-12-01T08:00:48.645Z,102332.63
2022-12-01T08:03:20.538Z,102068.34
2022-12-01T08:05:52.055Z,102323.91
2022-12-01T08:08:23.574Z,102330.97
2022-12-01T08:10:55.134Z,102333.09
2022-12-01T08:13:27.133Z,102337.88
2022-12-01T08:15:58.694Z,102339.97
2022-12-01T08:18:30.541Z,102337.72
2022-12-01T08:21:02.065Z,102342.97
2022-12-01T08:23:33.711Z,102328.69
2022-12-01T08:26:05.222Z,102332.88
2022-12-01T08:28:37.400Z,102340.03
2022-12-01T08:31:09.231Z,102340.16
2022-12-01T08:33:41.316Z,102344.84
2022-12-01T08:36:12.865Z,102334.78
2022-12-01T08:38:45.168Z,102358.22
2022-12-01T08:41:16.677Z,102337.22
2022-12-01T08:44:03.744Z,102336.56
2022-12-01T08:46:35.395Z,102337.16
2022-12-01T08:49:07.373Z,102331.72
2022-12-01T08:51:38.866Z,102349.75
2022-12-01T08:54:10.381Z,102335.44
2022-12-01T08:56:41.860Z,102339.97
2022-12-01T08:59:13.709Z,102334.34
2022-12-01T09:01:54.434Z,102336.28
2022-12-01T09:04:26.038Z,102341.16
2022-12-01T09:06:58.033Z,102339.78
2022-12-01T09:09:29.862Z,102336.06
2022-12-01T09:12:01.561Z,102345.84
2022-12-01T09:14:33.074Z,102346.06
2022-12-01T09:17:04.578Z,102342.59
2022-12-01T09:19:36.465Z,102344.50
2022-12-01T09:22:07.965Z,102337.81
2022-12-01T09:24:39.788Z,102340.25
2022-12-01T09:27:11.341Z,102341.44
2022-12-01T09:29:43.161Z,102343.59
2022-12-01T09:32:14.659Z,102339.88
2022-12-01T09:34:46.559Z,102334.38
2022-12-01T09:37:18.055Z,102341.91
2022-12-01T09:39:50.111Z,102345.72
2022-12-01T09:42:30.858Z,102346.09
2022-12-01T09:45:05.361Z,102343.09
2022-12-01T09:47:37.238Z,102334.63
2022-12-01T09:50:09.240Z,102339.38
2022-12-01T09:52:41.163Z,102340.94
2022-12-01T09:55:12.721Z,102338.31
2022-12-01T09:57:44.576Z,102336.91
2022-12-01T10:00:16.131Z,102338.09
2022-12-01T10:02:48.043Z,102341.06
2022-12-01T10:05:19.624Z,102336.06
2022-12-01T10:07:51.510Z,102331.75
2022-12-01T10:10:23.019Z,102329.50
2022-12-01T10:12:54.842Z,102327.44
2022-12-01T10:15:26.406Z,102330.06
2022-12-01T10:17:58.324Z,102321.34
2022-12-01T10:20:29.802Z,102320.03
2022-12-01T10:23:01.736Z,102321.59
2022-12-01T10:25:33.222Z,102329.25
2022-12-01T10:28:05.457Z,102321.84
2022-12-01T10:30:39.201Z,102323.28
2022-12-01T10:33:11.214Z,102318.00
2022-12-01T10:35:42.712Z,102312.31
2022-12-01T10:38:14.740Z,102142.25
2022-12-01T10:40:46.244Z,102310.59
2022-12-01T10:43:18.132Z,102317.69
2022-12-01T10:45:49.666Z,102313.22
2022-12-01T10:48:21.537Z,102302.03
2022-12-01T10:50:53.102Z,102309.31
2022-12-01T10:53:25.720Z,102303.22
2022-12-01T10:55:57.225Z,102297.63
2022-12-01T10:58:29.281Z,102306.69
2022-12-01T11:01:01.254Z,102301.91
2022-12-01T11:03:33.266Z,102300.81
2022-12-01T11:06:04.968Z,102293.66
2022-12-01T11:08:37.538Z,102297.13
2022-12-01T11:11:09.060Z,102293.41
2022-12-01T11:13:40.943Z,102293.41
2022-12-01T11:16:12.496Z,102293.56
2022-12-01T11:18:44.385Z,102297.84
2022-12-01T11:21:15.922Z,102293.91
2022-12-01T11:23:47.667Z,102290.56
2022-12-01T11:26:20.776Z,102296.63
2022-12-01T11:28:53.036Z,102303.09
2022-12-01T11:31:27.903Z,102280.41
2022-12-01T11:33:59.944Z,102278.97
2022-12-01T11:36:31.452Z,102284.94
2022-12-01T11:39:03.261Z,102284.56
2022-12-01T11:41:35.002Z,102291.97
2022-12-01T11:44:22.561Z,102292.56
2022-12-01T11:47:21.788Z,102286.84
2022-12-01T11:49:50.653Z,102279.41
2022-12-01T11:52:22.352Z,102290.88
2022-12-01T11:54:54.272Z,102285.38
2022-12-01T11:57:34.166Z,102283.38
2022-12-01T12:00:06.953Z,102281.56
2022-12-01T12:02:38.510Z,102274.28
2022-12-01T12:05:10.497Z,102275.81
2022-12-01T12:07:42.374Z,102286.22
2022-12-01T12:10:14.341Z,102285.00
2022-12-01T12:12:45.858Z,102276.88
2022-12-01T12:15:17.375Z,102271.88
2022-12-01T12:17:48.991Z,102271.25
2022-12-01T12:20:20.923Z,102270.03
2022-12-01T12:22:55.502Z,102278.63
2022-12-01T12:25:27.918Z,102274.47
2022-12-01T12:27:59.478Z,102276.34
2022-12-01T12:30:31.618Z,102278.38
2022-12-01T12:33:03.155Z,102269.06
2022-12-01T12:35:35.144Z,102268.69
2022-12-01T12:38:08.755Z,102268.53
2022-12-01T12:40:40.236Z,102273.91
2022-12-01T12:43:11.754Z,102266.84
2022-12-01T12:45:43.258Z,102267.34
2022-12-01T12:48:15.223Z,102272.13
2022-12-01T12:50:46.723Z,102272.25
2022-12-01T12:53:18.553Z,102270.69
2022-12-01T12:55:50.052Z,102267.69
2022-12-01T12:58:22.049Z,102266.53
2022-12-01T13:00:53.547Z,102268.19
2022-12-01T13:03:30.639Z,102271.41
2022-12-01T13:06:05.221Z,102268.91
2022-12-01T13:08:37.238Z,102264.25
2022-12-01T13:11:08.753Z,102271.28
2022-12-01T13:13:40.681Z,102137.66
2022-12-01T13:16:12.275Z,102273.22
2022-12-01T13:18:44.321Z,102268.81
2022-12-01T13:21:15.940Z,102267.53
2022-12-01T13:23:47.856Z,102267.41
2022-12-01T13:26:19.361Z,102263.91
2022-12-01T13:28:51.517Z,102269.41
2022-12-01T13:31:23.137Z,102272.28
2022-12-01T13:33:55.226Z,102273.00
2022-12-01T13:39:18.248Z,102262.59
2022-12-01T13:41:49.795Z,102263.88
2022-12-01T13:44:21.309Z,102273.22
2022-12-01T13:46:52.940Z,102258.31
2022-12-01T13:49:28.851Z,102264.88
2022-12-01T13:52:11.538Z,102267.97
2022-12-01T13:54:43.079Z,102267.03
2022-12-01T13:57:14.584Z,102269.66
2022-12-01T13:59:46.634Z,102266.69
2022-12-01T14:02:18.540Z,102265.13
2022-12-01T14:04:50.687Z,102263.69
2022-12-01T14:07:22.565Z,102267.41
2022-12-01T14:09:54.577Z,102260.22
2022-12-01T14:12:26.170Z,102256.16
2022-12-01T14:14:58.372Z,102261.16
2022-12-01T14:17:30.234Z,102255.09
2022-12-01T14:20:02.356Z,102247.69
2022-12-01T14:22:33.918Z,102254.13
2022-12-01T14:25:07.919Z,102249.22
2022-12-01T14:27:39.476Z,102249.59
2022-12-01T14:30:11.355Z,102259.53
2022-12-01T14:32:42.865Z,102268.59
2022-12-01T14:35:14.839Z,102255.78
2022-12-01T14:37:46.464Z,102256.28
2022-12-01T14:40:18.404Z,102261.28
2022-12-01T14:43:08.835Z,102265.00
2022-12-01T14:45:40.627Z,102264.91
2022-12-01T14:48:12.507Z,102263.94
2022-12-01T14:50:46.721Z,102256.75
2022-12-01T14:53:19.462Z,102262.72
2022-12-01T14:55:51.454Z,102255.66
2022-12-01T14:58:23.249Z,102248.25
2022-12-01T15:00:55.370Z,102251.38
2022-12-01T15:03:31.853Z,102250.66
2022-12-01T15:06:04.519Z,102251.38
2022-12-01T15:11:30.875Z,102245.53
2022-12-01T15:14:03.141Z,102242.91
2022-12-01T15:16:35.818Z,102244.22
2022-12-01T15:19:08.090Z,102240.63
2022-12-01T15:21:41.971Z,102241.69
2022-12-01T15:24:13.945Z,102241.44
2022-12-01T15:26:46.451Z,102242.75
2022-12-01T15:29:19.823Z,102249.19
2022-12-01T15:31:51.768Z,102252.81
2022-12-01T15:34:24.242Z,102242.19
2022-12-01T15:36:56.318Z,102234.75
2022-12-01T15:39:28.682Z,102228.34
2022-12-01T15:42:00.647Z,102238.72
2022-12-01T15:44:34.557Z,102226.41
2022-12-01T15:47:06.824Z,102232.41
2022-12-01T15:49:43.903Z,102238.00
2022-12-01T15:52:16.228Z,102235.75
2022-12-01T15:54:48.163Z,102230.50
2022-12-01T15:57:19.820Z,102239.56
2022-12-01T15:59:51.708Z,102253.91
2022-12-01T16:02:23.264Z,102250.34
2022-12-01T16:04:55.252Z,102241.13
2022-12-01T16:07:44.138Z,102240.53
2022-12-01T16:10:19.863Z,102245.06
2022-12-01T16:12:51.729Z,102248.66
2022-12-01T16:15:24.235Z,102241.13
2022-12-01T16:17:56.049Z,102246.75
2022-12-01T16:20:28.974Z,102246.75
2022-12-01T16:23:00.911Z,102242.09
2022-12-01T16:25:33.265Z,102241.13
2022-12-01T16:28:07.013Z,102242.44
2022-12-01T16:30:39.760Z,102238.41
2022-12-01T16:33:12.589Z,102240.06
2022-12-01T16:35:50.800Z,102245.31
2022-12-01T16:38:23.023Z,102241.13
2022-12-01T16:40:55.073Z,102246.03
2022-12-01T16:43:27.617Z,102241.97
2022-12-01T16:46:00.825Z,102250.44
2022-12-01T16:48:32.692Z,102248.41
2022-12-01T16:51:04.744Z,102242.31
2022-12-01T16:53:36.688Z,102245.28
2022-12-01T16:56:08.688Z,102249.34
2022-12-01T16:58:40.262Z,102241.72
2022-12-01T17:01:12.329Z,102249.22
2022-12-01T17:03:43.856Z,102256.97
2022-12-01T17:06:15.637Z,102240.28
2022-12-01T17:08:47.207Z,102251.97
2022-12-01T17:11:18.719Z,102259.84
2022-12-01T17:13:50.265Z,102242.91
2022-12-01T17:16:22.326Z,102251.63
2022-12-01T17:18:54.347Z,102249.94
2022-12-01T17:21:25.862Z,102248.28
2022-12-01T17:23:57.760Z,102247.09
2022-12-01T17:26:29.278Z,102248.63
2022-12-01T17:29:01.086Z,102248.41
2022-12-01T17:31:32.725Z,102244.34
2022-12-01T17:34:04.693Z,102246.13
2022-12-01T17:36:36.609Z,102240.03
2022-12-01T17:39:08.153Z,102245.28
2022-12-01T17:41:42.041Z,102244.81
2022-12-01T17:44:13.616Z,102241.94
2022-12-01T17:46:45.160Z,102242.66
2022-12-01T17:49:17.102Z,102243.03
2022-12-01T17:51:48.625Z,102238.13
2022-12-01T17:54:20.228Z,102238.84
2022-12-01T17:56:51.716Z,102238.84
2022-12-01T17:59:23.511Z,102237.66
2022-12-01T18:01:55.075Z,102240.16
2022-12-01T18:04:27.080Z,102236.69
2022-12-01T18:06:58.604Z,102239.19
2022-12-01T18:09:30.430Z,102241.13
2022-12-01T18:12:01.985Z,102237.78
2022-12-01T18:14:34.936Z,102240.50
2022-12-01T18:17:06.489Z,102232.41
2022-12-01T18:19:38.410Z,102234.44
2022-12-01T18:22:09.979Z,102236.94
2022-12-01T18:24:41.906Z,102240.75
2022-12-01T18:27:13.533Z,102246.38
2022-12-01T18:29:45.454Z,102235.38
2022-12-01T18:32:17.063Z,102235.50
2022-12-01T18:34:49.323Z,102232.88
2022-12-01T18:37:21.379Z,102236.81
2022-12-01T18:39:53.199Z,102235.63
2022-12-01T18:42:24.746Z,102235.38
2022-12-01T18:44:56.553Z,102233.13
2022-12-01T18:47:28.075Z,102228.34
2022-12-01T18:50:00.077Z,102235.03
2022-12-01T18:52:32.621Z,102232.63
2022-12-01T18:55:04.998Z,102231.56
2022-12-01T18:57:36.938Z,102233.75
2022-12-01T19:00:09.026Z,102231.72
2022-12-01T19:02:40.976Z,102233.88
2022-12-01T19:05:13.454Z,102235.88
2022-12-01T19:07:45.392Z,102236.47
2022-12-01T19:10:17.292Z,102234.09
2022-12-01T19:12:49.139Z,102235.41
2022-12-01T19:15:21.507Z,102231.25
2022-12-01T19:17:53.361Z,102228.63
2022-12-01T19:20:26.660Z,102230.28
2022-12-01T19:22:58.669Z,102226.47
2022-12-01T19:25:30.988Z,102224.78
2022-12-01T19:28:02.955Z,102220.03
2022-12-01T19:30:46.814Z,102223.00
2022-12-01T19:33:20.082Z,102214.03
2022-12-01T19:35:52.245Z,102227.41
2022-12-01T19:38:24.100Z,102217.63
2022-12-01T19:40:56.371Z,102230.88
2022-12-01T19:43:28.230Z,102222.75
2022-12-01T19:46:01.129Z,102231.47
2022-12-01T19:48:32.808Z,101963.00
2022-12-01T19:51:04.740Z,102237.91
2022-12-01T19:53:36.329Z,102231.47
2022-12-01T19:56:08.180Z,102240.31
2022-12-01T19:58:39.738Z,102010.66
2022-12-01T20:01:11.756Z,102248.91
2022-12-01T20:03:43.793Z,102245.66
2022-12-01T20:06:21.925Z,102244.59
2022-12-01T20:08:53.938Z,102250.56
2022-12-01T20:11:26.405Z,102247.09
2022-12-01T20:13:58.165Z,102251.16
2022-12-01T20:16:31.189Z,102242.69
2022-12-01T20:19:03.259Z,102240.66
2022-12-01T20:21:35.975Z,102247.69
2022-12-01T20:24:07.964Z,102249.38
2022-12-01T20:26:40.499Z,102240.66
2022-12-01T20:29:12.542Z,102245.31
2022-12-01T20:31:44.847Z,102242.94
2022-12-01T20:34:16.875Z,102241.84
2022-12-01T20:36:49.250Z,102246.97
2022-12-01T20:39:21.575Z,102242.44
2022-12-01T20:41:54.186Z,102241.38
2022-12-01T20:44:26.202Z,102239.94
2022-12-01T20:46:58.410Z,102236.72
2022-12-01T20:49:30.263Z,102231.59
2022-12-01T20:52:02.532Z,102242.09
2022-12-01T20:54:34.421Z,102239.34
2022-12-01T20:57:06.238Z,102243.88
2022-12-01T20:59:37.818Z,102243.16
2022-12-01T21:02:09.722Z,102239.34
2022-12-01T21:04:41.258Z,102243.50
2022-12-01T21:07:13.162Z,102238.38
2022-12-01T21:09:44.982Z,102231.59
2022-12-01T21:12:35.272Z,102234.34
2022-12-01T21:15:06.869Z,102232.75
2022-12-01T21:17:38.427Z,102232.06
2022-12-01T21:20:11.873Z,102278.13
2022-12-01T21:22:43.379Z,102232.66
2022-12-01T21:25:19.182Z,102236.44
2022-12-01T21:27:50.680Z,102233.75
2022-12-01T21:30:22.246Z,102232.91
2022-12-01T21:32:53.740Z,102231.31
2022-12-01T21:35:25.339Z,102231.94
2022-12-01T21:37:56.844Z,102230.75
2022-12-01T21:40:28.557Z,102230.50
2022-12-01T21:43:00.094Z,102227.66
2022-12-01T21:45:32.114Z,102227.03
2022-12-01T21:48:03.724Z,102222.84
2022-12-01T21:50:35.724Z,102213.53
2022-12-01T21:53:07.248Z,102217.84
2022-12-01T21:55:39.262Z,102215.22
2022-12-01T21:58:10.790Z,102210.81
2022-12-01T22:00:42.844Z,102211.38
2022-12-01T22:03:14.416Z,102214.00
2022-12-01T22:06:06.913Z,102205.41
2022-12-01T22:08:37.889Z,102206.00
2022-12-01T22:11:09.458Z,102204.34
2022-12-01T22:13:41.090Z,102202.44
2022-12-01T22:16:13.031Z,102199.94
2022-12-01T22:18:44.575Z,102203.50
2022-12-01T22:21:16.439Z,102203.03
2022-12-01T22:23:47.970Z,102211.50
2022-12-01T22:26:19.822Z,102211.75
2022-12-01T22:28:51.370Z,102193.84
2022-12-01T22:31:22.958Z,102201.59
2022-12-01T22:33:57.654Z,102199.81
2022-12-01T22:36:32.366Z,102199.94
2022-12-01T22:39:03.899Z,102199.69
2022-12-01T22:41:35.943Z,102199.47
2022-12-01T22:44:07.532Z,102207.47
2022-12-01T22:46:42.697Z,102200.19
2022-12-01T22:49:17.815Z,102201.59
2022-12-01T22:51:49.878Z,102192.53
2022-12-01T22:54:21.469Z,102191.91
2022-12-01T22:56:53.324Z,102198.00
2022-12-01T22:59:24.875Z,102190.75
2022-12-01T23:01:56.729Z,102185.00
2022-12-01T23:04:28.316Z,102196.34
2022-12-01T23:07:00.192Z,102192.75
2022-12-01T23:09:31.739Z,102184.63
2022-12-01T23:12:03.753Z,102189.78
2022-12-01T23:14:35.380Z,102189.28
2022-12-01T23:17:07.615Z,102186.66
2022-12-01T23:19:39.306Z,102180.47
2022-12-01T23:22:11.136Z,102176.53
2022-12-01T23:24:42.680Z,102177.81
2022-12-01T23:27:14.523Z,102177.63
2022-12-01T23:29:46.068Z,102174.03
2022-12-01T23:32:17.925Z,102172.00
2022-12-01T23:34:49.665Z,102167.09
2022-12-01T23:37:21.670Z,102166.16
2022-12-01T23:39:53.208Z,102157.66
2022-12-01T23:42:25.112Z,102160.19
2022-12-01T23:44:56.675Z,102161.03
2022-12-01T23:47:28.680Z,102156.94
2022-12-01T23:50:00.256Z,102167.09
2022-12-01T23:52:32.287Z,102163.16
2022-12-01T23:55:03.857Z,102157.78
2022-12-01T23:57:35.762Z,102161.94
